Time;durP1;ratioP1;P1;durP2;ratioP2;P2;SDS_P1;SDS_P2;PMS_P1;PMS_P2;Temp;Humidity;BMP_temperature;BMP_pressure;BME280_temperature;BME280_humidity;BME280_pressure;Samples;Min_cycle;Max_cycle;Signal;HPM_P1;HPM_P2
2020/12/15 00:00:20;;;;;;;15.50;13.90;;;4.50;99.90;;;;;;5086417;28;20685;-89
2020/12/15 00:02:46;;;;;;;15.37;13.70;;;4.60;99.90;;;;;;5088658;28;20629;-88
2020/12/15 00:05:13;;;;;;;15.37;13.87;;;4.60;99.90;;;;;;5086954;28;20630;-88
2020/12/15 00:07:39;;;;;;;13.07;11.77;;;4.70;99.90;;;;;;5088928;28;20619;-88
2020/12/15 00:10:07;;;;;;;13.73;12.30;;;4.70;99.90;;;;;;5088099;28;20976;-89
2020/12/15 00:12:33;;;;;;;15.73;12.50;;;4.60;99.90;;;;;;5086344;28;21102;-88
2020/12/15 00:14:59;;;;;;;14.20;12.80;;;4.70;99.90;;;;;;5084567;28;20637;-88
2020/12/15 00:17:26;;;;;;;15.07;13.60;;;4.70;99.90;;;;;;5086739;28;20662;-89
2020/12/15 00:19:52;;;;;;;14.60;13.30;;;4.70;99.90;;;;;;5088051;28;20653;-89
2020/12/15 00:22:19;;;;;;;15.53;14.13;;;4.70;99.90;;;;;;5087709;28;21203;-89
2020/12/15 00:24:46;;;;;;;16.73;14.90;;;4.80;99.90;;;;;;5088777;28;20636;-88
2020/12/15 00:27:13;;;;;;;18.10;16.30;;;4.80;99.90;;;;;;5089210;28;20623;-89
2020/12/15 00:29:40;;;;;;;13.97;12.60;;;4.80;99.90;;;;;;5088141;28;20772;-88
2020/12/15 00:32:08;;;;;;;16.23;14.63;;;4.80;99.90;;;;;;5090993;28;21187;-88
2020/12/15 00:34:34;;;;;;;17.30;15.57;;;4.80;99.90;;;;;;5088081;28;20697;-90
2020/12/15 00:37:03;;;;;;;15.00;13.60;;;4.80;99.90;;;;;;5092729;28;20769;-91
2020/12/15 00:39:29;;;;;;;14.80;13.47;;;4.80;99.90;;;;;;5074623;28;20666;-91
2020/12/15 00:41:56;;;;;;;14.57;13.17;;;4.90;99.90;;;;;;5092348;28;20614;-91
2020/12/15 00:44:23;;;;;;;13.27;11.87;;;4.90;99.90;;;;;;5092656;28;20655;-91
2020/12/15 00:46:50;;;;;;;14.50;13.03;;;4.90;99.90;;;;;;5094132;28;21342;-89
2020/12/15 00:49:17;;;;;;;12.27;11.10;;;5.00;99.90;;;;;;5095806;28;20674;-89
2020/12/15 00:51:43;;;;;;;13.47;12.03;;;5.00;99.90;;;;;;5087251;28;20629;-88
2020/12/15 00:54:09;;;;;;;13.10;11.90;;;5.00;99.90;;;;;;5087789;28;20634;-88
2020/12/15 00:56:36;;;;;;;12.97;11.80;;;4.90;99.90;;;;;;5090634;28;21132;-88
2020/12/15 00:59:02;;;;;;;12.83;11.57;;;4.90;99.90;;;;;;5090640;28;21203;-88
2020/12/15 01:01:29;;;;;;;13.53;12.27;;;5.00;99.90;;;;;;5090168;28;20669;-89
2020/12/15 01:03:55;;;;;;;12.63;11.43;;;5.00;99.90;;;;;;5091827;28;20622;-89
2020/12/15 01:06:21;;;;;;;12.00;10.90;;;5.00;99.90;;;;;;5091534;28;20621;-89
2020/12/15 01:08:48;;;;;;;13.00;11.80;;;4.90;99.90;;;;;;5091271;28;20626;-90
2020/12/15 01:11:14;;;;;;;12.97;11.80;;;5.00;99.90;;;;;;5089829;28;20649;-89
2020/12/15 01:13:40;;;;;;;12.13;10.93;;;5.10;99.90;;;;;;5087893;28;20612;-89
2020/12/15 01:16:07;;;;;;;12.47;11.23;;;5.00;99.90;;;;;;5094580;28;21137;-89
2020/12/15 01:18:35;;;;;;;11.63;10.53;;;4.90;99.90;;;;;;5093264;28;21154;-89
2020/12/15 01:21:01;;;;;;;11.97;10.97;;;4.90;99.90;;;;;;5087798;28;21225;-88
2020/12/15 01:23:29;;;;;;;12.60;11.40;;;5.00;99.90;;;;;;5090866;28;20627;-89
2020/12/15 01:25:56;;;;;;;13.10;11.80;;;5.00;99.90;;;;;;5089248;28;20599;-87
2020/12/15 01:28:23;;;;;;;13.43;12.23;;;5.10;99.90;;;;;;5091695;28;20617;-89
2020/12/15 01:30:50;;;;;;;14.50;13.10;;;5.00;99.90;;;;;;5092006;28;20679;-88
2020/12/15 01:33:16;;;;;;;15.93;13.50;;;5.00;99.90;;;;;;5090676;28;20626;-87
2020/12/15 01:35:46;;;;;;;12.90;11.70;;;5.00;99.90;;;;;;5091805;28;20627;-87
2020/12/15 01:38:12;;;;;;;13.80;12.50;;;4.90;99.90;;;;;;5090646;28;20672;-88
2020/12/15 01:40:38;;;;;;;15.03;13.47;;;4.90;99.90;;;;;;5091125;28;20658;-87
2020/12/15 01:43:05;;;;;;;15.60;14.20;;;5.00;99.90;;;;;;5090171;28;20588;-89
2020/12/15 01:45:34;;;;;;;12.67;11.47;;;5.10;99.90;;;;;;5092105;28;20718;-89
2020/12/15 01:48:10;;;;;;;16.03;13.73;;;5.10;99.90;;;;;;5093164;28;20626;-89
2020/12/15 01:50:36;;;;;;;14.83;13.23;;;5.20;99.90;;;;;;5089724;28;20677;-89
2020/12/15 01:53:09;;;;;;;16.40;14.90;;;5.10;99.90;;;;;;5092246;28;20648;-89
2020/12/15 01:55:36;;;;;;;15.90;14.20;;;5.20;99.90;;;;;;5093354;28;20634;-88
2020/12/15 01:58:04;;;;;;;15.30;13.80;;;5.20;99.90;;;;;;5091078;28;21092;-90
2020/12/15 02:00:30;;;;;;;15.83;14.33;;;5.30;99.90;;;;;;5091122;28;20657;-90
2020/12/15 02:02:57;;;;;;;15.73;14.13;;;5.30;99.90;;;;;;5089728;28;20713;-89
2020/12/15 02:05:24;;;;;;;15.87;14.40;;;5.30;99.90;;;;;;5089899;28;21027;-90
2020/12/15 02:07:51;;;;;;;15.20;13.80;;;5.30;99.90;;;;;;5091725;28;20617;-89
2020/12/15 02:10:26;;;;;;;16.60;15.13;;;5.30;99.90;;;;;;5091271;28;20650;-91
2020/12/15 02:12:53;;;;;;;15.53;13.73;;;5.30;99.90;;;;;;5091974;28;20650;-89
2020/12/15 02:15:19;;;;;;;17.23;15.47;;;5.30;99.90;;;;;;5090305;28;20639;-89
2020/12/15 02:17:46;;;;;;;16.50;15.00;;;5.40;99.90;;;;;;5091509;28;20674;-88
2020/12/15 02:20:12;;;;;;;18.40;16.60;;;5.30;99.90;;;;;;5091394;28;20678;-89
2020/12/15 02:22:42;;;;;;;16.47;14.97;;;5.20;99.90;;;;;;5091613;28;20607;-90
2020/12/15 02:25:09;;;;;;;16.40;14.77;;;5.20;99.90;;;;;;5091402;28;20681;-89
2020/12/15 02:27:36;;;;;;;17.07;15.37;;;5.20;99.90;;;;;;5091875;28;20661;-89
2020/12/15 02:30:06;;;;;;;15.73;14.20;;;5.20;99.90;;;;;;5091242;28;20671;-90
2020/12/15 02:32:33;;;;;;;15.97;14.57;;;5.30;99.90;;;;;;5085913;28;20629;-89
2020/12/15 02:35:00;;;;;;;16.27;14.73;;;5.20;99.90;;;;;;5086947;28;20641;-90
2020/12/15 02:37:26;;;;;;;18.07;15.30;;;5.30;99.90;;;;;;5089275;28;21015;-89
2020/12/15 02:39:57;;;;;;;18.13;16.40;;;5.30;99.90;;;;;;5089212;28;20669;-88
2020/12/15 02:42:29;;;;;;;16.97;15.47;;;5.20;99.90;;;;;;5088622;28;20613;-88
2020/12/15 02:44:55;;;;;;;16.47;14.97;;;5.30;99.90;;;;;;5089615;28;20684;-88
2020/12/15 02:47:22;;;;;;;15.93;14.40;;;5.30;99.90;;;;;;5087355;28;20982;-88
2020/12/15 02:49:49;;;;;;;16.63;15.10;;;5.40;99.90;;;;;;5094545;28;20991;-89
2020/12/15 02:52:19;;;;;;;15.33;13.93;;;5.30;99.90;;;;;;5109305;28;20618;-89
2020/12/15 02:54:46;;;;;;;15.80;14.33;;;5.40;99.90;;;;;;5105897;28;20672;-89
2020/12/15 02:57:14;;;;;;;16.10;14.70;;;5.20;99.90;;;;;;5094578;28;20663;-89
2020/12/15 02:59:40;;;;;;;17.20;15.50;;;5.30;99.90;;;;;;5090204;28;20645;-88
2020/12/15 03:02:06;;;;;;;15.47;13.97;;;5.30;99.90;;;;;;5090343;28;20634;-90
2020/12/15 03:04:32;;;;;;;16.37;14.97;;;5.40;99.90;;;;;;5089823;28;20632;-89
2020/12/15 03:06:59;;;;;;;15.43;14.03;;;5.40;99.90;;;;;;5086098;28;20624;-88
2020/12/15 03:09:25;;;;;;;16.73;15.20;;;5.40;99.90;;;;;;5090877;28;20626;-87
2020/12/15 03:11:55;;;;;;;16.93;15.13;;;5.40;99.90;;;;;;5086562;28;20632;-88
2020/12/15 03:14:22;;;;;;;16.23;14.53;;;5.50;99.90;;;;;;5094936;28;20637;-89
2020/12/15 03:16:48;;;;;;;16.00;14.50;;;5.40;99.90;;;;;;5091983;28;21252;-89
2020/12/15 03:19:15;;;;;;;16.83;15.23;;;5.30;99.90;;;;;;5089394;28;20643;-90
2020/12/15 03:21:41;;;;;;;17.50;15.83;;;5.30;99.90;;;;;;5088877;28;20613;-90
2020/12/15 03:24:08;;;;;;;17.50;15.80;;;5.30;99.90;;;;;;5088630;28;20968;-90
2020/12/15 03:26:34;;;;;;;20.77;17.93;;;5.20;99.90;;;;;;5088623;28;20704;-89
2020/12/15 03:29:05;;;;;;;18.20;16.40;;;5.20;99.90;;;;;;5086852;28;21167;-89
2020/12/15 03:31:33;;;;;;;19.57;17.67;;;5.30;99.90;;;;;;5080706;28;20682;-90
2020/12/15 03:34:00;;;;;;;18.30;16.60;;;5.30;99.90;;;;;;5086198;28;20648;-89
2020/12/15 03:36:27;;;;;;;19.30;17.63;;;5.30;99.90;;;;;;5087727;28;20642;-89
2020/12/15 03:38:54;;;;;;;20.00;18.20;;;5.50;99.90;;;;;;5087992;28;21174;-89
2020/12/15 03:41:20;;;;;;;22.93;20.73;;;5.40;99.90;;;;;;5086091;28;20662;-90
2020/12/15 03:43:47;;;;;;;21.53;19.50;;;5.60;99.90;;;;;;5088532;28;21169;-90
2020/12/15 03:46:14;;;;;;;21.23;19.17;;;5.50;99.90;;;;;;5090724;28;21185;-89
2020/12/15 03:48:42;;;;;;;20.53;18.73;;;5.50;99.90;;;;;;5088603;28;21035;-90
2020/12/15 03:51:08;;;;;;;22.73;20.80;;;5.50;99.90;;;;;;5089912;28;20670;-90
2020/12/15 03:53:35;;;;;;;21.80;19.90;;;5.50;99.90;;;;;;5084624;28;21222;-90
2020/12/15 03:56:03;;;;;;;22.17;20.20;;;5.50;99.90;;;;;;5092316;28;20979;-89
2020/12/15 03:58:31;;;;;;;23.00;21.00;;;5.60;99.90;;;;;;5087409;28;20710;-89
2020/12/15 04:00:57;;;;;;;21.57;19.63;;;5.70;99.90;;;;;;5083951;28;20650;-89
2020/12/15 04:03:24;;;;;;;16.70;15.00;;;5.70;99.90;;;;;;5088169;28;20989;-89
2020/12/15 04:05:51;;;;;;;16.53;14.93;;;5.80;99.90;;;;;;5086473;28;20631;-88
2020/12/15 04:08:19;;;;;;;15.93;14.37;;;5.60;99.90;;;;;;5086765;28;20583;-87
2020/12/15 04:10:46;;;;;;;12.23;11.13;;;5.50;99.90;;;;;;5088678;28;20626;-89
2020/12/15 04:13:12;;;;;;;13.07;11.97;;;5.40;99.90;;;;;;5085826;28;20713;-88
2020/12/15 04:15:38;;;;;;;14.17;12.77;;;5.40;99.90;;;;;;5086786;28;20622;-89
2020/12/15 04:18:05;;;;;;;12.37;11.27;;;5.40;99.90;;;;;;5087792;28;20688;-89
2020/12/15 04:20:31;;;;;;;14.40;13.00;;;5.40;99.90;;;;;;5087449;28;20650;-89
2020/12/15 04:22:58;;;;;;;13.50;12.10;;;5.40;99.90;;;;;;5088772;28;20638;-90
2020/12/15 04:25:24;;;;;;;12.60;11.40;;;5.50;99.90;;;;;;5085863;28;20725;-89
2020/12/15 04:27:52;;;;;;;11.93;10.90;;;5.50;99.90;;;;;;5088508;28;20615;-90
2020/12/15 04:30:19;;;;;;;12.50;11.40;;;5.50;99.90;;;;;;5086727;28;20738;-90
2020/12/15 04:32:46;;;;;;;12.87;11.57;;;5.60;99.90;;;;;;5086170;28;20681;-88
2020/12/15 04:35:12;;;;;;;12.23;11.10;;;5.50;99.90;;;;;;5084077;28;21315;-88
2020/12/15 04:37:38;;;;;;;12.03;11.03;;;5.50;99.90;;;;;;5087936;28;20623;-88
2020/12/15 04:40:06;;;;;;;14.07;12.50;;;5.40;99.90;;;;;;5087536;28;20651;-88
2020/12/15 04:42:33;;;;;;;13.33;11.67;;;5.40;99.90;;;;;;5087198;28;20684;-88
2020/12/15 04:45:00;;;;;;;10.67;9.80;;;5.40;99.90;;;;;;5086196;28;20643;-88
2020/12/15 04:47:34;;;;;;;11.77;10.67;;;5.50;99.90;;;;;;5088301;28;21224;-89
2020/12/15 04:50:02;;;;;;;12.00;11.00;;;5.60;99.90;;;;;;5082738;28;20654;-87
2020/12/15 04:52:45;;;;;;;11.53;10.63;;;5.60;99.90;;;;;;5082143;28;20672;-88
2020/12/15 04:55:14;;;;;;;12.83;10.37;;;5.60;99.90;;;;;;5084082;28;20637;-87
2020/12/15 04:57:40;;;;;;;10.90;9.80;;;5.70;99.90;;;;;;5087486;28;21476;-87
2020/12/15 05:00:08;;;;;;;11.40;10.40;;;5.60;99.90;;;;;;5086298;28;20698;-87
2020/12/15 05:02:39;;;;;;;9.20;8.30;;;5.80;99.90;;;;;;5091771;28;20628;-87
2020/12/15 05:05:05;;;;;;;10.43;9.23;;;6.00;99.90;;;;;;5088364;28;20611;-88
2020/12/15 05:07:39;;;;;;;11.30;10.33;;;6.10;99.90;;;;;;5088187;28;20631;-88
2020/12/15 05:10:05;;;;;;;15.47;13.87;;;6.00;99.90;;;;;;5085191;28;20658;-87
2020/12/15 05:12:33;;;;;;;13.03;11.93;;;5.90;99.90;;;;;;5082633;28;20638;-88
2020/12/15 05:14:59;;;;;;;13.10;11.90;;;5.80;99.90;;;;;;5091193;28;21250;-90
2020/12/15 05:17:28;;;;;;;12.10;10.40;;;5.80;99.90;;;;;;5089248;28;20666;-90
2020/12/15 05:19:55;;;;;;;11.97;10.70;;;5.70;99.90;;;;;;5093054;28;20734;-89
2020/12/15 05:22:21;;;;;;;11.10;10.20;;;5.70;99.90;;;;;;5093103;28;21558;-89
2020/12/15 05:24:48;;;;;;;10.13;9.13;;;5.70;99.90;;;;;;5090773;28;20635;-90
2020/12/15 05:27:29;;;;;;;10.60;9.50;;;5.80;99.90;;;;;;5091044;28;20719;-89
2020/12/15 05:30:06;;;;;;;10.20;9.23;;;5.70;99.90;;;;;;5085988;28;20639;-89
2020/12/15 05:32:32;;;;;;;10.10;8.83;;;5.70;99.90;;;;;;5090497;28;20605;-88
2020/12/15 05:35:09;;;;;;;10.13;9.10;;;5.60;99.90;;;;;;5091652;28;20625;-88
2020/12/15 05:37:35;;;;;;;21.47;19.50;;;5.60;99.90;;;;;;5088233;28;20667;-89
2020/12/15 05:40:03;;;;;;;17.00;15.50;;;5.50;99.90;;;;;;5091926;28;20658;-89
2020/12/15 05:42:32;;;;;;;25.07;22.90;;;5.50;99.90;;;;;;5092441;28;20630;-89
2020/12/15 05:45:01;;;;;;;20.20;18.47;;;5.60;99.90;;;;;;5088681;28;20675;-90
2020/12/15 05:47:29;;;;;;;10.77;9.73;;;5.60;99.90;;;;;;5093143;28;20633;-89
2020/12/15 05:49:58;;;;;;;9.53;8.00;;;5.70;99.90;;;;;;5090537;28;20652;-90
2020/12/15 05:52:25;;;;;;;11.20;10.10;;;5.70;99.90;;;;;;5091404;28;20626;-90
2020/12/15 05:54:52;;;;;;;16.00;10.87;;;5.60;99.90;;;;;;5087482;28;20583;-90
2020/12/15 05:57:23;;;;;;;15.33;10.60;;;5.70;99.90;;;;;;5091305;28;21031;-90
2020/12/15 05:59:49;;;;;;;16.57;11.00;;;5.70;99.90;;;;;;5092858;28;20670;-90
2020/12/15 06:02:16;;;;;;;21.27;14.53;;;5.80;99.90;;;;;;5091238;28;20674;-90
2020/12/15 06:04:43;;;;;;;15.03;11.83;;;6.00;99.90;;;;;;5087442;28;20628;-90
2020/12/15 06:07:10;;;;;;;13.70;10.23;;;6.00;99.90;;;;;;5093802;28;20628;-90
2020/12/15 06:09:37;;;;;;;16.03;11.20;;;6.00;99.90;;;;;;5091709;28;20664;-89
2020/12/15 06:12:05;;;;;;;11.20;10.10;;;6.00;99.90;;;;;;5092378;28;20635;-90
2020/12/15 06:14:31;;;;;;;11.90;9.53;;;6.00;99.90;;;;;;5091551;28;20674;-88
2020/12/15 06:16:58;;;;;;;11.40;10.30;;;6.00;99.90;;;;;;5091320;28;20645;-88
2020/12/15 06:19:24;;;;;;;12.27;11.07;;;6.00;99.90;;;;;;5112393;28;20617;-90
2020/12/15 06:21:55;;;;;;;10.20;9.30;;;5.90;99.90;;;;;;5111450;28;20621;-88
2020/12/15 06:24:27;;;;;;;10.77;9.07;;;5.80;99.90;;;;;;5091103;28;21608;-89
2020/12/15 06:26:58;;;;;;;10.90;9.90;;;5.80;99.90;;;;;;5090900;28;20633;-89
2020/12/15 06:29:32;;;;;;;11.50;10.30;;;5.80;99.90;;;;;;5087784;28;20599;-89
2020/12/15 06:31:59;;;;;;;12.40;11.20;;;5.90;99.90;;;;;;5091237;28;21161;-89
2020/12/15 06:34:27;;;;;;;10.20;9.30;;;5.90;99.90;;;;;;5089726;28;20666;-89
2020/12/15 06:36:57;;;;;;;10.90;9.90;;;5.90;99.90;;;;;;5088645;28;21178;-89
2020/12/15 06:39:25;;;;;;;13.20;8.60;;;5.90;99.90;;;;;;5093084;28;20617;-88
2020/12/15 06:42:02;;;;;;;11.33;10.13;;;6.00;99.90;;;;;;5090331;28;20592;-89
2020/12/15 06:44:30;;;;;;;11.23;10.20;;;6.20;99.90;;;;;;5093475;28;20721;-90
2020/12/15 06:46:58;;;;;;;10.63;9.63;;;6.10;99.90;;;;;;5091334;28;21450;-90
2020/12/15 06:49:29;;;;;;;11.30;10.10;;;6.10;99.90;;;;;;5086263;28;20631;-92
2020/12/15 06:51:58;;;;;;;10.33;9.37;;;6.10;99.90;;;;;;5090205;28;20637;-89
2020/12/15 06:54:28;;;;;;;10.20;9.30;;;6.00;99.90;;;;;;5089294;28;20653;-89
2020/12/15 06:57:01;;;;;;;20.03;18.40;;;6.00;99.90;;;;;;5093721;28;20645;-90
2020/12/15 06:59:35;;;;;;;14.97;13.67;;;6.10;99.90;;;;;;5088747;28;20635;-90
2020/12/15 07:02:11;;;;;;;13.80;12.40;;;6.10;99.90;;;;;;5092718;28;20663;-91
2020/12/15 07:04:46;;;;;;;10.30;9.50;;;6.00;99.90;;;;;;5091873;28;21222;-90
2020/12/15 07:07:16;;;;;;;12.23;11.03;;;6.00;99.90;;;;;;5124394;27;20715;-89
2020/12/15 07:09:43;;;;;;;12.13;10.93;;;6.00;99.90;;;;;;5093453;28;20929;-92
2020/12/15 07:12:13;;;;;;;11.10;9.87;;;6.00;99.90;;;;;;5093093;28;20651;-90
2020/12/15 07:14:42;;;;;;;9.13;8.23;;;6.00;99.90;;;;;;5103201;28;21051;-91
2020/12/15 07:17:09;;;;;;;13.70;10.50;;;6.00;99.90;;;;;;5094660;28;21077;-91
2020/12/15 07:19:48;;;;;;;9.77;8.87;;;6.00;99.90;;;;;;5092745;28;20616;-90
2020/12/15 07:22:23;;;;;;;10.27;9.17;;;6.10;99.90;;;;;;5097125;28;20627;-92
2020/12/15 07:24:50;;;;;;;10.53;9.63;;;6.10;99.90;;;;;;5091406;28;20701;-92
2020/12/15 07:27:19;;;;;;;10.33;9.43;;;6.00;99.90;;;;;;5086749;28;20622;-90
2020/12/15 07:29:52;;;;;;;10.63;9.10;;;6.00;99.90;;;;;;5092738;28;20659;-91
2020/12/15 07:32:19;;;;;;;10.83;9.60;;;6.00;99.90;;;;;;5090961;28;20622;-87
2020/12/15 07:34:45;;;;;;;11.30;10.10;;;6.00;99.90;;;;;;5087978;28;20632;-90
2020/12/15 07:37:19;;;;;;;11.73;10.53;;;6.10;99.90;;;;;;5090077;28;21012;-88
2020/12/15 07:39:46;;;;;;;10.17;9.07;;;6.00;99.90;;;;;;5085382;28;20663;-88
2020/12/15 07:42:14;;;;;;;12.53;9.90;;;6.10;99.90;;;;;;5087045;28;20635;-88
2020/12/15 07:44:40;;;;;;;11.57;10.27;;;6.10;99.90;;;;;;5086578;28;20633;-89
2020/12/15 07:47:07;;;;;;;10.33;9.27;;;6.20;99.90;;;;;;5089892;28;20745;-89
2020/12/15 07:49:34;;;;;;;10.83;9.80;;;6.20;99.90;;;;;;5089445;28;20673;-88
2020/12/15 07:52:01;;;;;;;10.80;9.70;;;6.20;99.90;;;;;;5089764;28;20631;-88
2020/12/15 07:54:28;;;;;;;11.40;8.50;;;6.20;99.90;;;;;;5090155;28;20633;-86
2020/12/15 07:57:00;;;;;;;9.67;8.77;;;6.30;99.90;;;;;;5091644;28;20605;-87
2020/12/15 07:59:27;;;;;;;9.10;8.20;;;6.40;99.90;;;;;;5085124;28;20666;-87
2020/12/15 08:01:54;;;;;;;9.70;8.70;;;6.50;99.90;;;;;;5090632;28;20682;-87
2020/12/15 08:04:20;;;;;;;8.43;7.63;;;6.60;99.90;;;;;;5092302;28;21250;-87
2020/12/15 08:06:48;;;;;;;9.30;8.33;;;6.50;99.90;;;;;;5096365;28;20634;-88
2020/12/15 08:09:16;;;;;;;11.90;10.70;;;6.50;99.90;;;;;;5102714;28;21367;-87
2020/12/15 08:11:46;;;;;;;15.30;13.70;;;6.60;99.90;;;;;;5102741;28;21020;-86
2020/12/15 08:14:13;;;;;;;15.07;12.60;;;6.60;99.90;;;;;;5098904;28;20616;-87
2020/12/15 08:16:40;;;;;;;12.47;11.17;;;6.60;99.90;;;;;;5097710;28;20625;-87
2020/12/15 08:19:07;;;;;;;11.80;10.43;;;6.60;99.90;;;;;;5095247;28;20668;-88
2020/12/15 08:21:43;;;;;;;11.60;10.40;;;6.60;99.90;;;;;;5099499;28;20640;-87
2020/12/15 08:24:11;;;;;;;13.00;10.83;;;6.60;99.90;;;;;;5102011;28;20632;-88
2020/12/15 08:26:41;;;;;;;11.73;10.00;;;6.70;99.90;;;;;;5108489;28;20622;-88
2020/12/15 08:29:12;;;;;;;10.63;9.63;;;6.80;99.90;;;;;;5095449;28;20648;-88
2020/12/15 08:31:41;;;;;;;11.43;10.23;;;6.80;99.90;;;;;;5092401;28;20970;-88
2020/12/15 08:34:12;;;;;;;9.73;8.73;;;6.70;99.90;;;;;;5092626;28;20628;-88
2020/12/15 08:36:43;;;;;;;9.30;8.27;;;6.70;99.90;;;;;;5099127;28;20725;-89
2020/12/15 08:39:12;;;;;;;11.07;9.83;;;6.80;99.90;;;;;;5093225;28;20683;-88
2020/12/15 08:41:47;;;;;;;10.27;8.43;;;6.70;99.90;;;;;;5089179;28;20628;-88
2020/12/15 08:44:14;;;;;;;9.97;8.90;;;6.60;99.90;;;;;;5094159;28;20624;-88
2020/12/15 08:46:41;;;;;;;10.27;9.30;;;6.60;99.90;;;;;;5091603;28;20636;-89
2020/12/15 08:49:11;;;;;;;10.50;9.37;;;6.60;99.90;;;;;;5089390;28;20653;-88
2020/12/15 08:51:40;;;;;;;10.30;8.77;;;6.70;99.90;;;;;;5090886;28;20630;-88
2020/12/15 08:54:06;;;;;;;10.20;9.03;;;6.60;99.90;;;;;;5094551;28;20729;-89
2020/12/15 08:56:35;;;;;;;11.50;9.80;;;6.60;99.90;;;;;;5089981;28;21198;-89
2020/12/15 08:59:12;;;;;;;10.57;9.50;;;6.70;99.90;;;;;;5087570;28;21039;-88
2020/12/15 09:01:42;;;;;;;10.70;9.70;;;6.50;99.90;;;;;;5092639;28;20634;-88
2020/12/15 09:04:10;;;;;;;11.60;10.50;;;6.60;99.90;;;;;;5089510;28;20642;-87
2020/12/15 09:06:37;;;;;;;11.47;10.37;;;6.70;99.90;;;;;;5085278;28;20617;-88
2020/12/15 09:09:06;;;;;;;13.37;11.97;;;6.60;99.90;;;;;;5092193;28;21081;-87
2020/12/15 09:11:33;;;;;;;13.70;12.30;;;6.70;99.90;;;;;;5091823;28;20703;-88
2020/12/15 09:14:04;;;;;;;16.87;14.40;;;6.80;99.90;;;;;;5093106;28;20672;-89
2020/12/15 09:16:33;;;;;;;15.50;14.00;;;6.80;99.90;;;;;;5092615;28;20621;-89
2020/12/15 09:19:11;;;;;;;16.43;14.83;;;6.80;99.90;;;;;;5089143;28;21081;-89
2020/12/15 09:21:40;;;;;;;15.40;13.90;;;7.00;99.90;;;;;;5090595;28;20624;-89
2020/12/15 09:24:08;;;;;;;15.90;13.50;;;7.00;99.90;;;;;;5090075;28;20989;-89
2020/12/15 09:26:37;;;;;;;14.97;13.37;;;6.90;99.90;;;;;;5095373;28;20616;-90
2020/12/15 09:29:09;;;;;;;13.50;12.20;;;7.00;99.90;;;;;;5089052;28;20664;-89
2020/12/15 09:31:41;;;;;;;14.57;13.07;;;7.00;99.90;;;;;;5088458;28;20614;-89
2020/12/15 09:34:10;;;;;;;15.27;11.37;;;7.00;99.90;;;;;;5088616;28;20633;-88
2020/12/15 09:36:41;;;;;;;13.57;12.17;;;7.00;99.90;;;;;;5089952;28;20645;-88
2020/12/15 09:39:09;;;;;;;16.03;12.33;;;7.00;99.90;;;;;;5093215;28;21058;-88
2020/12/15 09:41:37;;;;;;;14.20;11.73;;;7.10;99.90;;;;;;5090638;28;20736;-88
2020/12/15 09:44:03;;;;;;;13.77;11.53;;;7.10;99.90;;;;;;5098112;28;20731;-88
2020/12/15 09:46:29;;;;;;;14.80;11.73;;;7.30;99.90;;;;;;5114144;28;20613;-89
2020/12/15 09:48:56;;;;;;;13.57;12.17;;;7.20;99.90;;;;;;5102104;28;20660;-88
2020/12/15 09:51:22;;;;;;;15.13;12.70;;;7.30;99.90;;;;;;5090911;28;20629;-90
2020/12/15 09:53:49;;;;;;;13.70;12.30;;;7.40;99.90;;;;;;5091083;28;20756;-89
2020/12/15 09:56:16;;;;;;;15.47;13.87;;;7.50;99.90;;;;;;5091457;28;20633;-89
2020/12/15 09:58:42;;;;;;;14.17;12.73;;;7.50;99.90;;;;;;5088597;28;20679;-90
2020/12/15 10:01:08;;;;;;;14.57;12.87;;;7.50;99.90;;;;;;5089408;28;20662;-89
2020/12/15 10:03:35;;;;;;;14.27;12.77;;;7.40;99.90;;;;;;5088888;28;20629;-91
2020/12/15 10:06:01;;;;;;;16.53;12.87;;;7.30;99.90;;;;;;5090824;28;20643;-89
2020/12/15 10:08:28;;;;;;;17.77;13.50;;;7.30;99.90;;;;;;5091594;28;20632;-90
2020/12/15 10:10:55;;;;;;;15.43;11.90;;;7.40;99.90;;;;;;5090375;28;20645;-89
2020/12/15 10:13:21;;;;;;;14.13;12.63;;;7.40;99.90;;;;;;5091864;28;20637;-88
2020/12/15 10:15:48;;;;;;;13.37;11.97;;;7.40;99.90;;;;;;5089842;28;20632;-89
2020/12/15 10:18:14;;;;;;;13.77;12.13;;;7.40;99.90;;;;;;5089025;28;20663;-88
2020/12/15 10:20:40;;;;;;;14.63;13.07;;;7.30;99.90;;;;;;5091243;28;20654;-89
2020/12/15 10:23:07;;;;;;;14.57;13.07;;;7.50;99.90;;;;;;5091775;28;20631;-88
2020/12/15 10:25:33;;;;;;;13.17;11.60;;;7.50;99.90;;;;;;5090456;28;20634;-88
2020/12/15 10:28:00;;;;;;;13.20;11.90;;;7.60;99.90;;;;;;5090371;28;21166;-88
2020/12/15 10:30:26;;;;;;;14.17;11.83;;;7.70;99.90;;;;;;5089337;28;20649;-87
2020/12/15 10:32:53;;;;;;;17.57;11.93;;;7.80;99.90;;;;;;5090499;28;20611;-87
2020/12/15 10:35:19;;;;;;;15.30;11.90;;;7.80;99.90;;;;;;5088651;28;20692;-89
2020/12/15 10:37:46;;;;;;;12.40;11.00;;;7.90;99.90;;;;;;5090230;28;20651;-89
2020/12/15 10:40:12;;;;;;;15.80;12.80;;;8.10;99.90;;;;;;5091466;28;20687;-89
2020/12/15 10:42:39;;;;;;;15.17;13.67;;;8.10;99.90;;;;;;5088682;28;20626;-88
2020/12/15 10:45:07;;;;;;;19.20;13.43;;;8.30;99.90;;;;;;5088741;28;20617;-88
2020/12/15 10:47:34;;;;;;;16.53;14.83;;;8.20;99.90;;;;;;5090581;28;20686;-88
2020/12/15 10:50:01;;;;;;;17.63;15.80;;;8.30;99.90;;;;;;5087330;28;21254;-87
2020/12/15 10:52:27;;;;;;;17.67;15.87;;;8.30;99.90;;;;;;5090124;28;20702;-88
2020/12/15 10:54:54;;;;;;;16.40;14.70;;;8.40;99.90;;;;;;5087332;28;20621;-88
2020/12/15 10:57:20;;;;;;;17.00;14.90;;;8.40;99.90;;;;;;5089100;28;20625;-88
2020/12/15 10:59:47;;;;;;;17.33;15.50;;;8.40;99.90;;;;;;5087177;28;20666;-88
2020/12/15 11:02:16;;;;;;;17.00;14.60;;;8.30;99.90;;;;;;5086927;28;21227;-88
2020/12/15 11:04:42;;;;;;;14.97;13.40;;;8.50;99.90;;;;;;5087649;28;20636;-87
2020/12/15 11:07:09;;;;;;;14.03;12.53;;;9.10;99.90;;;;;;5088121;28;21179;-87
2020/12/15 11:09:36;;;;;;;15.70;12.13;;;9.30;99.90;;;;;;5086890;28;20650;-88
2020/12/15 11:12:02;;;;;;;19.70;13.00;;;9.20;99.90;;;;;;5087714;28;20621;-88
2020/12/15 11:14:30;;;;;;;12.50;11.27;;;9.30;99.90;;;;;;5088468;28;20711;-89
2020/12/15 11:16:58;;;;;;;12.67;11.13;;;9.40;99.90;;;;;;5086339;28;21036;-88
2020/12/15 11:19:25;;;;;;;13.20;11.80;;;9.30;99.90;;;;;;5088307;28;21216;-89
2020/12/15 11:21:51;;;;;;;12.97;11.77;;;9.30;99.90;;;;;;5087946;28;20590;-88
2020/12/15 11:24:20;;;;;;;12.57;10.97;;;9.40;99.90;;;;;;5085492;28;20614;-87
2020/12/15 11:26:49;;;;;;;11.50;9.60;;;9.40;99.90;;;;;;5089474;28;20634;-88
2020/12/15 11:29:17;;;;;;;12.70;10.67;;;9.50;99.90;;;;;;5086673;28;21109;-89
2020/12/15 11:31:43;;;;;;;13.50;10.53;;;9.40;99.90;;;;;;5088784;28;20610;-88
2020/12/15 11:34:10;;;;;;;10.63;8.10;;;9.50;99.90;;;;;;5088468;28;20631;-88
2020/12/15 11:36:37;;;;;;;9.80;8.80;;;9.50;99.90;;;;;;5096471;28;20989;-88
2020/12/15 11:39:03;;;;;;;10.43;9.07;;;9.60;99.90;;;;;;5089349;28;20731;-88
2020/12/15 11:41:30;;;;;;;13.80;9.63;;;10.10;99.90;;;;;;5088642;28;20701;-90
2020/12/15 11:43:57;;;;;;;13.23;10.50;;;9.80;99.90;;;;;;5087946;28;20746;-87
2020/12/15 11:46:24;;;;;;;10.93;9.07;;;10.20;99.90;;;;;;5087059;28;20637;-87
2020/12/15 11:48:51;;;;;;;10.17;9.07;;;9.90;99.90;;;;;;5088022;28;21036;-88
2020/12/15 11:51:18;;;;;;;9.97;8.97;;;9.70;99.90;;;;;;5088026;28;20816;-87
2020/12/15 11:53:47;;;;;;;9.97;9.03;;;9.60;99.90;;;;;;5088816;28;20630;-87
2020/12/15 11:56:16;;;;;;;12.03;8.60;;;9.60;99.90;;;;;;5089361;28;20667;-88
2020/12/15 11:58:42;;;;;;;15.60;9.90;;;9.50;99.90;;;;;;5082227;28;21158;-90
2020/12/15 12:01:08;;;;;;;12.93;11.53;;;9.50;99.90;;;;;;5088145;28;21198;-88
2020/12/15 12:03:34;;;;;;;11.60;9.03;;;9.50;99.90;;;;;;5087294;28;21227;-86
2020/12/15 12:06:01;;;;;;;11.23;10.10;;;9.40;99.90;;;;;;5089086;28;20628;-90
2020/12/15 12:08:28;;;;;;;10.73;9.63;;;9.40;99.90;;;;;;5088183;28;20637;-88
2020/12/15 12:10:55;;;;;;;10.47;9.40;;;9.40;99.90;;;;;;5089286;28;20665;-88
2020/12/15 12:13:22;;;;;;;14.10;8.80;;;9.40;99.90;;;;;;5088277;28;20702;-88
2020/12/15 12:15:48;;;;;;;15.90;8.70;;;9.30;99.90;;;;;;5091442;28;20640;-87
2020/12/15 12:18:16;;;;;;;11.20;9.90;;;9.40;99.90;;;;;;5100644;28;20670;-88
2020/12/15 12:20:42;;;;;;;11.03;9.07;;;9.30;99.90;;;;;;5087267;28;21235;-87
2020/12/15 12:23:09;;;;;;;12.30;9.30;;;9.40;99.90;;;;;;5086557;28;20629;-87
2020/12/15 12:25:35;;;;;;;9.80;8.80;;;9.40;99.90;;;;;;5088853;28;20627;-88
2020/12/15 12:28:02;;;;;;;10.53;8.97;;;9.40;99.90;;;;;;5091979;28;20627;-88
2020/12/15 12:30:28;;;;;;;10.97;9.83;;;9.40;99.90;;;;;;5093535;28;20671;-87
2020/12/15 12:32:55;;;;;;;14.57;9.70;;;9.40;99.90;;;;;;5092451;28;21190;-89
2020/12/15 12:35:22;;;;;;;14.10;9.17;;;9.50;99.90;;;;;;5089785;28;20621;-87
2020/12/15 12:37:48;;;;;;;10.00;7.83;;;9.50;99.90;;;;;;5091800;28;21303;-86
2020/12/15 12:40:14;;;;;;;10.17;8.97;;;9.40;99.90;;;;;;5089771;28;20651;-87
2020/12/15 12:42:40;;;;;;;10.17;8.40;;;9.40;99.90;;;;;;5088813;28;20629;-86